createdAt,value
2022-08-10T00:01:52.658Z,17.65
2022-08-10T00:04:23.147Z,17.59
2022-08-10T00:06:55.617Z,17.54
2022-08-10T00:09:23.864Z,17.49
2022-08-10T00:11:51.461Z,17.42
2022-08-10T00:14:19.158Z,17.36
2022-08-10T00:16:47.095Z,17.32
2022-08-10T00:19:16.735Z,17.28
2022-08-10T00:21:46.603Z,17.24
2022-08-10T00:24:14.858Z,17.24
2022-08-10T00:27:58.906Z,17.23
2022-08-10T00:29:31.048Z,17.23
2022-08-10T00:31:59.664Z,17.25
2022-08-10T00:34:32.796Z,17.27
2022-08-10T00:37:01.218Z,17.26
2022-08-10T00:39:29.460Z,17.10
2022-08-10T00:42:01.932Z,16.94
2022-08-10T00:44:42.985Z,16.76
2022-08-10T00:47:35.497Z,16.62
2022-08-10T00:49:59.428Z,16.52
2022-08-10T00:52:30.006Z,16.51
2022-08-10T00:54:58.238Z,16.44
2022-08-10T00:57:26.117Z,16.39
2022-08-10T00:59:59.006Z,16.41
2022-08-10T01:02:32.408Z,16.44
2022-08-10T01:05:05.232Z,16.45
2022-08-10T01:07:56.789Z,16.47
2022-08-10T01:10:43.579Z,16.53
2022-08-10T01:13:32.412Z,16.51
2022-08-10T01:16:09.337Z,16.50
2022-08-10T01:18:52.736Z,16.48
2022-08-10T01:21:57.082Z,16.47
2022-08-10T01:24:39.197Z,16.47
2022-08-10T01:27:27.681Z,16.49
2022-08-10T01:30:12.416Z,16.44
2022-08-10T01:33:01.608Z,16.41
2022-08-10T01:35:54.372Z,16.40
2022-08-10T01:38:32.240Z,16.43
2022-08-10T01:41:06.506Z,16.43
2022-08-10T01:43:40.824Z,16.44
2022-08-10T01:46:10.626Z,16.45
2022-08-10T01:48:48.821Z,16.46
2022-08-10T01:51:27.746Z,16.45
2022-08-10T01:54:01.665Z,16.46
2022-08-10T01:56:31.144Z,16.43
2022-08-10T01:59:07.737Z,16.44
2022-08-10T02:01:40.441Z,16.43
2022-08-10T02:04:11.073Z,16.42
2022-08-10T02:06:49.064Z,16.41
2022-08-10T02:09:24.035Z,16.42
2022-08-10T02:12:05.785Z,16.41
2022-08-10T02:14:51.198Z,16.42
2022-08-10T02:17:58.033Z,16.42
2022-08-10T02:20:18.511Z,16.40
2022-08-10T02:22:49.972Z,16.38
2022-08-10T02:25:40.936Z,16.36
2022-08-10T02:28:09.115Z,16.33
2022-08-10T02:30:38.234Z,16.37
2022-08-10T02:33:07.001Z,16.38
2022-08-10T02:35:53.848Z,16.34
2022-08-10T02:38:57.702Z,16.29
2022-08-10T02:45:13.000Z,16.25
2022-08-10T02:45:23.391Z,16.25
2022-08-10T02:47:51.086Z,16.23
2022-08-10T02:50:38.940Z,16.20
2022-08-10T02:53:54.477Z,16.20
2022-08-10T02:56:12.795Z,16.22
2022-08-10T02:58:45.066Z,16.21
2022-08-10T03:01:17.653Z,16.19
2022-08-10T03:03:59.302Z,16.18
2022-08-10T03:06:34.680Z,16.16
2022-08-10T03:09:06.491Z,16.17
2022-08-10T03:12:35.660Z,16.16
2022-08-10T03:14:25.425Z,16.12
2022-08-10T03:16:56.627Z,16.12
2022-08-10T03:20:35.453Z,16.10
2022-08-10T03:22:15.725Z,16.08
2022-08-10T03:24:44.574Z,16.05
2022-08-10T03:27:13.594Z,16.03
2022-08-10T03:30:23.501Z,16.03
2022-08-10T03:32:33.496Z,16.02
2022-08-10T03:35:02.024Z,16.01
2022-08-10T03:37:29.600Z,16.02
2022-08-10T03:39:57.514Z,16.01
2022-08-10T03:42:27.670Z,16.03
2022-08-10T03:44:56.637Z,16.02
2022-08-10T03:47:25.741Z,16.05
2022-08-10T03:49:56.334Z,16.05
2022-08-10T03:52:25.433Z,16.12
2022-08-10T03:54:53.300Z,16.21
2022-08-10T03:57:22.593Z,16.37
2022-08-10T03:59:50.764Z,16.47
2022-08-10T04:02:44.345Z,16.58
2022-08-10T04:05:08.045Z,16.79
2022-08-10T04:07:36.375Z,17.04
2022-08-10T04:10:04.103Z,17.28
2022-08-10T04:12:32.750Z,17.35
2022-08-10T04:15:00.420Z,17.33
2022-08-10T04:18:03.006Z,17.26
2022-08-10T04:20:25.796Z,17.14
2022-08-10T04:23:01.330Z,17.07
2022-08-10T04:25:29.720Z,16.95
2022-08-10T04:27:58.071Z,16.84
2022-08-10T04:30:28.243Z,16.75
2022-08-10T04:32:59.796Z,16.66
2022-08-10T04:35:29.896Z,16.62
2022-08-10T04:37:59.398Z,16.61
2022-08-10T04:40:30.736Z,16.77
2022-08-10T04:43:04.479Z,17.17
2022-08-10T04:45:49.856Z,17.57
2022-08-10T04:48:43.481Z,17.91
2022-08-10T04:51:17.705Z,18.57
2022-08-10T04:54:04.664Z,19.12
2022-08-10T04:56:39.742Z,19.43
2022-08-10T04:59:09.625Z,19.70
2022-08-10T05:02:22.483Z,19.70
2022-08-10T05:04:38.497Z,20.56
2022-08-10T05:07:17.019Z,20.66
2022-08-10T05:10:01.597Z,20.48
2022-08-10T05:12:38.734Z,20.31
2022-08-10T05:15:14.184Z,20.26
2022-08-10T05:18:03.333Z,21.05
2022-08-10T05:20:30.846Z,21.51
2022-08-10T05:22:58.390Z,22.06
2022-08-10T05:25:25.943Z,22.58
2022-08-10T05:27:57.284Z,22.91
2022-08-10T05:30:25.350Z,23.51
2022-08-10T05:32:57.797Z,24.29
2022-08-10T05:35:28.854Z,24.82
2022-08-10T05:38:18.133Z,24.77
2022-08-10T05:40:47.826Z,24.57
2022-08-10T05:43:20.442Z,24.29
2022-08-10T05:46:19.687Z,24.04
2022-08-10T05:48:56.405Z,23.86
2022-08-10T05:51:28.239Z,24.06
2022-08-10T05:54:02.618Z,24.17
2022-08-10T05:56:53.850Z,24.11
2022-08-10T06:00:10.793Z,24.16
2022-08-10T06:02:34.099Z,24.65
2022-08-10T06:05:19.372Z,24.41
2022-08-10T06:08:08.701Z,24.57
2022-08-10T06:12:21.663Z,24.35
2022-08-10T06:13:59.470Z,24.58
2022-08-10T06:16:34.906Z,24.38
2022-08-10T06:19:04.297Z,24.19
2022-08-10T06:21:33.043Z,24.63
2022-08-10T06:24:02.443Z,24.81
2022-08-10T06:26:30.112Z,24.41
2022-08-10T06:29:04.229Z,24.42
2022-08-10T06:31:47.854Z,24.63
2022-08-10T06:34:27.588Z,24.78
2022-08-10T06:36:59.455Z,25.22
2022-08-10T06:39:36.316Z,25.79
2022-08-10T06:42:17.923Z,25.75
2022-08-10T06:45:00.766Z,26.08
2022-08-10T06:47:46.830Z,26.65
2022-08-10T06:50:56.099Z,26.56
2022-08-10T06:53:16.122Z,26.08
2022-08-10T06:55:57.078Z,26.22
2022-08-10T06:58:29.330Z,25.80
2022-08-10T07:00:58.231Z,25.91
2022-08-10T07:03:34.114Z,25.55
2022-08-10T07:06:06.531Z,25.45
2022-08-10T07:08:37.003Z,25.08
2022-08-10T07:11:08.811Z,25.16
2022-08-10T07:14:15.252Z,24.95
2022-08-10T07:16:30.062Z,25.01
2022-08-10T07:19:00.581Z,25.44
2022-08-10T07:21:30.391Z,25.63
2022-08-10T07:24:00.828Z,25.60
2022-08-10T07:26:31.732Z,25.72
2022-08-10T07:29:00.433Z,25.59
2022-08-10T07:31:49.312Z,25.61
2022-08-10T07:34:28.706Z,25.51
2022-08-10T07:37:06.242Z,25.40
2022-08-10T07:40:03.188Z,25.30
2022-08-10T07:42:31.185Z,25.16
2022-08-10T07:44:59.681Z,25.01
2022-08-10T07:47:52.718Z,25.02
2022-08-10T07:50:25.190Z,25.34
2022-08-10T07:52:57.161Z,25.92
2022-08-10T07:56:08.296Z,25.94
2022-08-10T07:58:16.452Z,25.77
2022-08-10T08:00:46.661Z,25.37
2022-08-10T08:03:16.431Z,25.27
2022-08-10T08:05:58.935Z,25.17
2022-08-10T08:08:32.267Z,25.60
2022-08-10T08:11:00.702Z,25.96
2022-08-10T08:13:29.688Z,26.01
2022-08-10T08:16:18.179Z,25.92
2022-08-10T08:19:03.996Z,26.12
2022-08-10T08:24:07.376Z,26.28
2022-08-10T08:24:31.076Z,26.56
2022-08-10T08:27:03.158Z,26.53
2022-08-10T08:29:41.471Z,26.28
2022-08-10T08:32:11.691Z,26.23
2022-08-10T08:34:42.719Z,26.70
2022-08-10T08:37:12.418Z,26.61
2022-08-10T08:39:47.216Z,26.97
2022-08-10T08:42:44.782Z,26.36
2022-08-10T08:46:00.702Z,26.39
2022-08-10T08:48:55.422Z,26.37
2022-08-10T08:52:09.498Z,27.00
2022-08-10T08:54:58.231Z,26.71
2022-08-10T08:57:49.599Z,27.02
2022-08-10T09:00:36.562Z,26.81
2022-08-10T09:03:27.581Z,26.89
2022-08-10T09:06:04.652Z,27.56
2022-08-10T09:08:50.104Z,27.38
2022-08-10T09:11:30.883Z,27.11
2022-08-10T09:14:08.941Z,26.74
2022-08-10T09:16:51.989Z,27.14
2022-08-10T09:19:36.316Z,28.07
2022-08-10T09:22:17.905Z,27.80
2022-08-10T09:24:54.649Z,27.67
2022-08-10T09:27:39.792Z,28.07
2022-08-10T09:30:16.459Z,27.22
2022-08-10T09:36:16.127Z,27.34
2022-08-10T09:36:23.507Z,27.97
2022-08-10T09:40:05.890Z,27.77
2022-08-10T09:42:06.282Z,26.64
2022-08-10T09:45:00.198Z,26.33
2022-08-10T09:48:01.930Z,25.32
2022-08-10T09:51:41.786Z,24.86
2022-08-10T09:54:20.978Z,24.46
2022-08-10T09:57:43.149Z,24.24
2022-08-10T10:00:15.661Z,24.44
2022-08-10T10:03:03.805Z,24.42
2022-08-10T10:05:51.105Z,24.61
2022-08-10T10:08:20.529Z,24.82
2022-08-10T10:11:17.031Z,24.78
2022-08-10T10:14:26.397Z,24.57
2022-08-10T10:17:17.502Z,24.69
2022-08-10T10:20:09.661Z,24.75
2022-08-10T10:22:46.302Z,24.67
2022-08-10T10:25:23.471Z,24.57
2022-08-10T10:28:13.442Z,24.39
2022-08-10T10:31:16.739Z,24.63
2022-08-10T10:33:54.585Z,24.56
2022-08-10T10:36:23.956Z,24.71
2022-08-10T10:38:54.813Z,24.78
2022-08-10T10:41:55.987Z,24.51
2022-08-10T10:44:43.947Z,24.71
2022-08-10T10:47:27.153Z,25.69
2022-08-10T10:50:13.995Z,26.47
2022-08-10T10:53:19.369Z,27.76
2022-08-10T10:56:16.667Z,26.88
2022-08-10T10:59:33.284Z,25.94
2022-08-10T11:02:03.723Z,25.51
2022-08-10T11:05:09.756Z,25.37
2022-08-10T11:07:57.035Z,25.77
2022-08-10T11:10:47.163Z,26.04
2022-08-10T11:14:25.089Z,25.60
2022-08-10T11:16:43.521Z,25.24
2022-08-10T11:19:16.049Z,25.39
2022-08-10T11:22:01.727Z,25.67
2022-08-10T11:24:54.158Z,25.48
2022-08-10T11:27:44.565Z,25.34
2022-08-10T11:30:19.077Z,25.69
2022-08-10T11:33:32.403Z,25.94
2022-08-10T11:36:39.056Z,25.86
2022-08-10T11:39:31.810Z,25.76
2022-08-10T11:42:15.223Z,25.76
2022-08-10T11:45:09.128Z,26.31
2022-08-10T11:47:45.317Z,25.95
2022-08-10T11:50:35.228Z,26.04
2022-08-10T11:53:35.250Z,26.17
2022-08-10T11:56:11.106Z,26.31
2022-08-10T11:59:01.931Z,26.28
2022-08-10T12:01:47.242Z,26.34
2022-08-10T12:04:16.786Z,26.38
2022-08-10T12:06:55.993Z,26.58
2022-08-10T12:10:10.185Z,26.73
2022-08-10T12:12:14.068Z,25.64
2022-08-10T12:14:50.747Z,25.95
2022-08-10T12:17:56.635Z,25.82
2022-08-10T12:20:35.357Z,26.15
2022-08-10T12:23:27.736Z,26.28
2022-08-10T12:26:13.816Z,26.20
2022-08-10T12:28:52.148Z,25.63
2022-08-10T12:31:35.317Z,25.31
2022-08-10T12:34:19.175Z,25.56
2022-08-10T12:37:00.947Z,25.50
2022-08-10T12:39:34.757Z,25.64
2022-08-10T12:42:10.498Z,26.17
2022-08-10T12:45:03.576Z,26.82
2022-08-10T12:47:46.972Z,26.86
2022-08-10T12:50:30.988Z,26.48
2022-08-10T12:53:29.531Z,26.72
2022-08-10T12:55:58.765Z,26.81
2022-08-10T12:58:59.659Z,27.02
2022-08-10T13:01:18.891Z,27.37
2022-08-10T13:04:20.583Z,27.06
2022-08-10T13:06:41.898Z,27.25
2022-08-10T13:09:09.786Z,27.54
2022-08-10T13:12:39.504Z,27.74
2022-08-10T13:15:31.050Z,28.03
2022-08-10T13:17:58.175Z,26.92
2022-08-10T13:20:37.166Z,27.23
2022-08-10T13:23:35.736Z,26.97
2022-08-10T13:26:04.405Z,27.16
2022-08-10T13:28:45.572Z,26.66
2022-08-10T13:31:19.343Z,26.23
2022-08-10T13:34:03.810Z,26.03
2022-08-10T13:36:43.946Z,26.07
2022-08-10T13:39:12.819Z,26.25
2022-08-10T13:41:44.496Z,26.60
2022-08-10T13:44:17.864Z,26.87
2022-08-10T13:46:51.454Z,26.46
2022-08-10T13:49:21.298Z,26.29
2022-08-10T13:51:57.034Z,26.24
2022-08-10T13:54:36.958Z,26.03
2022-08-10T13:57:06.166Z,26.42
2022-08-10T14:00:37.497Z,26.87
2022-08-10T14:02:28.751Z,27.04
2022-08-10T14:04:58.078Z,27.22
2022-08-10T14:07:28.577Z,27.45
2022-08-10T14:10:07.762Z,26.96
2022-08-10T14:12:39.296Z,26.77
2022-08-10T14:15:09.912Z,27.01
2022-08-10T14:17:44.771Z,27.62
2022-08-10T14:20:19.325Z,27.75
2022-08-10T14:22:49.505Z,27.80
2022-08-10T14:25:17.073Z,27.88
2022-08-10T14:28:03.295Z,28.25
2022-08-10T14:30:33.162Z,28.20
2022-08-10T14:33:04.816Z,28.18
2022-08-10T14:36:19.105Z,28.45
2022-08-10T14:38:33.628Z,28.72
2022-08-10T14:41:04.224Z,29.33
2022-08-10T14:43:42.546Z,29.47
2022-08-10T14:46:17.795Z,29.33
2022-08-10T14:48:49.633Z,28.50
2022-08-10T14:51:26.197Z,26.95
2022-08-10T14:53:58.786Z,26.42
2022-08-10T14:56:34.307Z,25.86
2022-08-10T14:59:07.698Z,25.67
2022-08-10T15:02:00.563Z,25.54
2022-08-10T15:04:30.605Z,25.49
2022-08-10T15:07:12.822Z,25.66
2022-08-10T15:10:01.453Z,25.68
2022-08-10T15:12:38.308Z,25.39
2022-08-10T15:15:27.734Z,25.27
2022-08-10T15:17:58.958Z,25.25
2022-08-10T15:20:29.755Z,25.15
2022-08-10T15:23:30.531Z,25.05
2022-08-10T15:26:08.468Z,25.04
2022-08-10T15:29:22.731Z,25.06
2022-08-10T15:31:56.654Z,25.07
2022-08-10T15:34:44.558Z,24.94
2022-08-10T15:37:40.108Z,24.90
2022-08-10T15:40:25.400Z,24.80
2022-08-10T15:43:05.799Z,24.68
2022-08-10T15:46:14.556Z,24.62
2022-08-10T15:49:01.454Z,24.67
2022-08-10T15:51:52.873Z,24.61
2022-08-10T15:54:33.482Z,24.60
2022-08-10T15:57:21.164Z,24.60
2022-08-10T16:00:12.520Z,24.61
2022-08-10T16:02:53.881Z,24.62
2022-08-10T16:05:58.449Z,24.63
2022-08-10T16:08:24.400Z,24.61
2022-08-10T16:11:05.676Z,24.65
2022-08-10T16:13:50.644Z,24.78
2022-08-10T16:16:32.803Z,24.97
2022-08-10T16:19:22.322Z,25.19
2022-08-10T16:21:57.724Z,25.50
2022-08-10T16:24:29.822Z,25.67
2022-08-10T16:26:58.855Z,25.85
2022-08-10T16:29:27.645Z,25.77
2022-08-10T16:31:59.815Z,25.70
2022-08-10T16:34:30.646Z,25.67
2022-08-10T16:37:03.205Z,25.71
2022-08-10T16:39:57.835Z,25.69
2022-08-10T16:42:25.943Z,25.72
2022-08-10T16:45:06.319Z,25.68
2022-08-10T16:47:39.205Z,25.63
2022-08-10T16:50:10.764Z,25.61
2022-08-10T16:52:40.582Z,25.73
2022-08-10T16:55:47.447Z,25.68
2022-08-10T16:58:18.284Z,25.50
2022-08-10T17:00:47.355Z,25.42
2022-08-10T17:04:04.921Z,25.45
2022-08-10T17:06:10.735Z,25.29
2022-08-10T17:08:48.575Z,25.26
2022-08-10T17:11:18.874Z,25.11
2022-08-10T17:13:47.719Z,25.08
2022-08-10T17:16:17.724Z,25.05
2022-08-10T17:18:48.137Z,25.03
2022-08-10T17:21:22.701Z,25.14
2022-08-10T17:23:54.243Z,25.06
2022-08-10T17:26:37.126Z,24.97
2022-08-10T17:29:53.076Z,24.80
2022-08-10T17:32:08.351Z,24.68
2022-08-10T17:34:44.715Z,24.79
2022-08-10T17:37:24.629Z,24.73
2022-08-10T17:39:58.250Z,24.69
2022-08-10T17:42:27.379Z,24.55
2022-08-10T17:44:56.321Z,24.66
2022-08-10T17:47:27.489Z,24.56
2022-08-10T17:49:58.049Z,24.51
2022-08-10T17:52:30.663Z,24.29
2022-08-10T17:55:03.174Z,24.23
2022-08-10T17:57:36.809Z,24.10
2022-08-10T18:00:10.747Z,24.01
2022-08-10T18:02:40.864Z,24.00
2022-08-10T18:05:10.366Z,23.91
2022-08-10T18:07:43.784Z,23.96
2022-08-10T18:10:17.689Z,23.99
2022-08-10T18:12:53.331Z,24.07
2022-08-10T18:15:27.349Z,24.00
2022-08-10T18:18:02.801Z,23.97
2022-08-10T18:20:37.462Z,23.91
2022-08-10T18:23:08.057Z,23.86
2022-08-10T18:25:40.424Z,23.81
2022-08-10T18:28:11.538Z,23.73
2022-08-10T18:30:48.245Z,23.69
2022-08-10T18:33:19.109Z,23.67
2022-08-10T18:35:48.213Z,23.57
2022-08-10T18:38:17.516Z,23.56
2022-08-10T18:40:53.043Z,23.55
2022-08-10T18:44:07.126Z,23.52
2022-08-10T18:46:23.459Z,23.44
2022-08-10T18:49:09.474Z,23.47
2022-08-10T18:51:47.499Z,23.43
2022-08-10T18:54:39.636Z,23.40
2022-08-10T18:57:27.382Z,23.17
2022-08-10T19:00:13.551Z,23.08
2022-08-10T19:03:02.344Z,23.02
2022-08-10T19:06:00.722Z,22.95
2022-08-10T19:08:37.065Z,22.71
2022-08-10T19:11:25.162Z,22.52
2022-08-10T19:14:25.373Z,22.48
2022-08-10T19:17:20.189Z,22.39
2022-08-10T19:20:24.933Z,22.24
2022-08-10T19:23:06.110Z,22.14
2022-08-10T19:26:42.417Z,21.98
2022-08-10T19:29:17.358Z,21.84
2022-08-10T19:32:25.035Z,21.72
2022-08-10T19:35:11.263Z,21.63
2022-08-10T19:38:14.727Z,21.58
2022-08-10T19:41:30.993Z,21.46
2022-08-10T19:44:12.379Z,21.43
2022-08-10T19:46:42.703Z,21.38
2022-08-10T19:49:16.076Z,21.30
2022-08-10T19:52:23.394Z,21.27
2022-08-10T19:55:14.556Z,21.19
2022-08-10T19:58:02.552Z,21.18
2022-08-10T20:00:41.080Z,21.16
2022-08-10T20:03:23.923Z,21.09
2022-08-10T20:06:18.945Z,21.03
2022-08-10T20:08:59.284Z,20.95
2022-08-10T20:11:44.538Z,20.87
2022-08-10T20:14:23.161Z,20.76
2022-08-10T20:16:55.906Z,20.69
2022-08-10T20:19:52.754Z,20.67
2022-08-10T20:22:29.788Z,20.59
2022-08-10T20:25:28.148Z,20.54
2022-08-10T20:28:15.250Z,20.50
2022-08-10T20:30:48.252Z,20.45
2022-08-10T20:33:25.644Z,20.44
2022-08-10T20:36:00.452Z,20.42
2022-08-10T20:38:53.603Z,20.39
2022-08-10T20:41:28.704Z,20.35
2022-08-10T20:44:20.079Z,20.33
2022-08-10T20:47:01.813Z,20.24
2022-08-10T20:49:56.803Z,20.24
2022-08-10T20:52:27.469Z,20.18
2022-08-10T20:55:02.273Z,20.10
2022-08-10T20:57:57.443Z,20.01
2022-08-10T21:00:55.589Z,19.92
2022-08-10T21:04:00.925Z,19.81
2022-08-10T21:07:22.149Z,19.74
2022-08-10T21:10:25.332Z,19.73
2022-08-10T21:13:14.777Z,19.72
2022-08-10T21:15:58.200Z,19.73
2022-08-10T21:19:06.269Z,19.65
2022-08-10T21:22:01.455Z,19.57
2022-08-10T21:24:38.999Z,19.59
2022-08-10T21:27:35.862Z,19.53
2022-08-10T21:30:20.302Z,19.52
2022-08-10T21:33:02.722Z,19.45
2022-08-10T21:35:38.381Z,19.44
2022-08-10T21:38:26.465Z,19.46
2022-08-10T21:41:17.471Z,19.42
2022-08-10T21:44:24.083Z,19.25
2022-08-10T21:47:39.435Z,19.25
2022-08-10T21:50:28.001Z,19.12
2022-08-10T21:53:47.722Z,19.07
2022-08-10T21:57:00.603Z,19.02
2022-08-10T21:59:56.455Z,18.98
2022-08-10T22:02:50.136Z,18.92
2022-08-10T22:05:47.255Z,18.89
2022-08-10T22:08:38.793Z,18.85
2022-08-10T22:11:29.443Z,18.82
2022-08-10T22:14:27.101Z,18.77
2022-08-10T22:18:04.001Z,18.76
2022-08-10T22:20:42.921Z,18.69
2022-08-10T22:23:40.996Z,18.68
2022-08-10T22:27:00.677Z,18.68
2022-08-10T22:29:54.938Z,18.65
2022-08-10T22:32:50.952Z,18.64
2022-08-10T22:36:02.543Z,18.62
2022-08-10T22:38:51.850Z,18.59
2022-08-10T22:42:02.672Z,18.60
2022-08-10T22:44:55.171Z,18.60
2022-08-10T22:47:43.333Z,18.57
2022-08-10T22:50:13.171Z,18.49
2022-08-10T22:53:02.912Z,18.47
2022-08-10T22:55:59.673Z,18.39
2022-08-10T22:58:47.511Z,18.34
2022-08-10T23:01:40.860Z,18.29
2022-08-10T23:04:16.972Z,18.24
2022-08-10T23:06:56.391Z,18.21
2022-08-10T23:09:27.611Z,18.17
2022-08-10T23:11:59.986Z,18.10
2022-08-10T23:14:35.931Z,18.01
2022-08-10T23:18:00.556Z,17.98
2022-08-10T23:20:19.039Z,17.96
2022-08-10T23:22:50.458Z,18.00
2022-08-10T23:25:28.252Z,18.04
2022-08-10T23:28:00.778Z,18.05
2022-08-10T23:30:36.985Z,17.95
2022-08-10T23:33:06.578Z,17.96
2022-08-10T23:36:30.664Z,17.92
2022-08-10T23:38:40.182Z,17.93
2022-08-10T23:41:10.111Z,17.94
2022-08-10T23:44:03.305Z,17.95
2022-08-10T23:46:37.680Z,18.00
2022-08-10T23:49:07.894Z,17.98
2022-08-10T23:51:55.444Z,18.02
2022-08-10T23:54:26.046Z,18.01
2022-08-10T23:57:01.383Z,17.99
2022-08-10T23:59:32.034Z,17.97
